Time;durP1;ratioP1;P1;durP2;ratioP2;P2;SDS_P1;SDS_P2;PMS_P1;PMS_P2;Temp;Humidity;BMP_temperature;BMP_pressure;BME280_temperature;BME280_humidity;BME280_pressure;Samples;Min_cycle;Max_cycle;Signal;HPM_P1;HPM_P2
2024/01/03 00:00:01;;;;;;;4.20;1.95;;;;;;;25.04;34.06;97874.56;4983190;28;20029;-47
2024/01/03 00:02:27;;;;;;;4.35;2.00;;;;;;;25.06;33.86;97878.28;4990277;28;20473;-46
2024/01/03 00:04:52;;;;;;;3.65;1.70;;;;;;;25.06;33.96;97872.78;4985069;28;20080;-47
2024/01/03 00:07:17;;;;;;;3.67;1.80;;;;;;;25.05;34.08;97860.25;4988416;28;20489;-46
2024/01/03 00:09:43;;;;;;;4.15;1.90;;;;;;;25.05;33.84;97854.72;4986357;28;20026;-45
2024/01/03 00:12:08;;;;;;;3.47;1.67;;;;;;;25.06;33.98;97861.72;5002069;28;20088;-46
2024/01/03 00:14:34;;;;;;;4.50;2.00;;;;;;;25.05;34.07;97868.53;5001617;28;20030;-45
2024/01/03 00:17:01;;;;;;;4.10;1.98;;;;;;;25.04;34.07;97880.84;4981822;28;20030;-46
2024/01/03 00:19:26;;;;;;;3.75;1.80;;;;;;;25.06;33.92;97872.78;5015792;28;20105;-45
2024/01/03 00:21:51;;;;;;;3.40;1.60;;;;;;;25.08;33.93;97879.78;4979729;28;20037;-45
2024/01/03 00:24:18;;;;;;;3.28;1.55;;;;;;;25.07;33.94;97884.56;4985228;28;20034;-46
2024/01/03 00:26:43;;;;;;;3.80;1.70;;;;;;;25.08;33.89;97890.81;4981083;28;20023;-45
2024/01/03 00:29:36;;;;;;;4.30;1.80;;;;;;;25.09;33.76;97884.75;5016264;28;20037;-45
2024/01/03 00:32:02;;;;;;;3.88;1.75;;;;;;;25.08;33.96;97896.34;5010336;28;20066;-45
2024/01/03 00:34:37;;;;;;;3.80;1.70;;;;;;;25.06;33.93;97900.38;4971798;28;20504;-46
2024/01/03 00:37:02;;;;;;;3.70;1.70;;;;;;;25.08;33.99;97896.34;4983942;28;20026;-46
2024/01/03 00:39:34;;;;;;;3.95;1.60;;;;;;;25.08;34.07;97918.41;4968199;28;20024;-45
2024/01/03 00:41:59;;;;;;;3.90;1.60;;;;;;;25.05;34.00;97920.22;4978533;28;20022;-46
2024/01/03 00:44:24;;;;;;;3.50;1.60;;;;;;;25.04;33.94;97916.00;4981534;28;20025;-45
2024/01/03 00:46:51;;;;;;;3.83;1.50;;;;;;;25.04;34.11;97927.78;4980721;28;20077;-46
2024/01/03 00:49:16;;;;;;;3.20;1.50;;;;;;;25.03;33.95;97923.53;4984891;28;20018;-45
2024/01/03 00:51:47;;;;;;;3.13;1.55;;;;;;;25.04;33.81;97907.72;5010028;28;20374;-46
2024/01/03 00:54:12;;;;;;;3.22;1.45;;;;;;;25.02;33.91;97905.47;4984467;28;20026;-47
2024/01/03 00:56:37;;;;;;;3.80;1.60;;;;;;;25.04;34.05;97910.47;4998049;28;20816;-47
2024/01/03 00:59:03;;;;;;;3.30;1.50;;;;;;;25.04;33.71;97897.41;4985699;28;20025;-45
2024/01/03 01:01:28;;;;;;;3.25;1.40;;;;;;;25.02;34.14;97885.41;4984242;28;20030;-46
2024/01/03 01:03:53;;;;;;;3.80;1.63;;;;;;;25.01;34.14;97881.91;4982806;28;20027;-47
2024/01/03 01:06:19;;;;;;;3.10;1.42;;;;;;;25.00;34.07;97880.44;4982887;28;20018;-45
2024/01/03 01:08:44;;;;;;;3.80;1.50;;;;;;;25.02;33.95;97855.78;4985962;28;20028;-46
2024/01/03 01:11:09;;;;;;;2.58;1.40;;;;;;;25.03;34.01;97857.28;5018418;28;20489;-45
2024/01/03 01:13:35;;;;;;;3.70;1.52;;;;;;;25.02;34.19;97866.84;4985775;28;20037;-46
2024/01/03 01:16:00;;;;;;;3.35;1.40;;;;;;;25.00;33.98;97843.81;4988154;28;20037;-46
2024/01/03 01:18:25;;;;;;;3.20;1.48;;;;;;;24.99;34.17;97862.38;4985149;28;20031;-46
2024/01/03 01:20:51;;;;;;;3.40;1.48;;;;;;;24.98;34.04;97860.91;4985347;28;20019;-46
2024/01/03 01:23:16;;;;;;;2.80;1.40;;;;;;;25.00;34.09;97869.38;4989520;28;20125;-45
2024/01/03 01:25:42;;;;;;;2.80;1.30;;;;;;;25.03;34.15;97881.38;4984512;28;20026;-45
2024/01/03 01:28:07;;;;;;;3.03;1.40;;;;;;;25.01;34.25;97894.97;5014364;28;20077;-45
2024/01/03 01:30:33;;;;;;;3.53;1.30;;;;;;;25.00;34.02;97896.25;4983816;28;20029;-46
2024/01/03 01:32:58;;;;;;;3.13;1.42;;;;;;;24.99;34.14;97898.25;4983375;28;20030;-45
2024/01/03 01:35:24;;;;;;;3.45;1.40;;;;;;;24.99;34.21;97912.06;4987576;28;20470;-46
2024/01/03 01:37:49;;;;;;;3.50;1.30;;;;;;;24.99;34.04;97912.06;4988135;28;20081;-46
2024/01/03 01:40:14;;;;;;;3.40;1.40;;;;;;;25.03;34.15;97923.53;4990286;28;20031;-46
2024/01/03 01:42:41;;;;;;;3.15;1.40;;;;;;;25.00;34.09;97918.31;4988022;28;20041;-46
2024/01/03 01:45:07;;;;;;;2.22;1.20;;;;;;;24.99;34.03;97914.81;4986553;28;20032;-46
2024/01/03 01:47:32;;;;;;;3.20;1.40;;;;;;;24.99;34.13;97911.31;4985408;28;20027;-46
2024/01/03 01:49:57;;;;;;;3.25;1.30;;;;;;;25.01;34.09;97923.31;4983196;28;20026;-48
2024/01/03 01:52:23;;;;;;;2.88;1.30;;;;;;;24.97;34.22;97903.59;4985129;28;20031;-48
2024/01/03 01:54:48;;;;;;;2.65;1.27;;;;;;;24.96;34.10;97904.13;4998477;28;20037;-45
2024/01/03 01:57:13;;;;;;;2.90;1.30;;;;;;;24.98;34.08;97896.78;4988964;28;20109;-46
2024/01/03 01:59:41;;;;;;;2.63;1.23;;;;;;;24.96;34.11;97891.06;4983305;28;20502;-44
2024/01/03 02:02:06;;;;;;;;;;;;;;;24.96;34.16;97893.09;4988643;28;20034;-45
2024/01/03 02:04:34;;;;;;;2.95;1.33;;;;;;;24.94;34.14;97903.91;4986509;28;19940;-46
2024/01/03 02:07:00;;;;;;;3.53;1.45;;;;;;;24.91;34.26;97900.19;4982308;28;20026;-47
2024/01/03 02:09:25;;;;;;;2.58;1.30;;;;;;;24.91;34.18;97893.91;4989429;28;20030;-45
2024/01/03 02:11:50;;;;;;;2.25;1.10;;;;;;;24.93;34.31;97903.16;4982056;28;20479;-45
2024/01/03 02:14:16;;;;;;;2.50;1.23;;;;;;;24.93;34.35;97903.16;4987916;28;20022;-45
2024/01/03 02:16:41;;;;;;;2.17;1.20;;;;;;;24.94;34.19;97906.66;4983292;28;20023;-46
2024/01/03 02:19:06;;;;;;;2.53;1.20;;;;;;;24.91;34.20;97905.69;4984221;28;20035;-46
2024/01/03 02:21:32;;;;;;;2.53;1.20;;;;;;;24.92;34.35;97907.19;4991065;28;20026;-46
2024/01/03 02:23:57;;;;;;;3.17;1.10;;;;;;;24.94;34.22;97912.19;4991874;28;20026;-45
2024/01/03 02:26:22;;;;;;;3.20;1.30;;;;;;;24.94;34.11;97909.41;4987020;28;20033;-46
2024/01/03 02:28:48;;;;;;;2.70;1.25;;;;;;;24.94;34.28;97912.19;4986013;28;20024;-45
2024/01/03 02:31:13;;;;;;;2.10;1.00;;;;;;;24.93;34.12;97913.44;4985816;28;20036;-45
2024/01/03 02:33:38;;;;;;;2.47;1.13;;;;;;;24.94;34.07;97923.22;4986947;28;20034;-46
2024/01/03 02:36:04;;;;;;;2.13;1.00;;;;;;;24.93;34.12;97928.00;4986689;28;20524;-47
2024/01/03 02:38:29;;;;;;;2.95;1.20;;;;;;;24.95;34.18;97919.22;4987685;28;20026;-45
2024/01/03 02:40:55;;;;;;;2.55;1.20;;;;;;;24.92;34.25;97929.28;4984860;28;20033;-46
2024/01/03 02:43:20;;;;;;;2.05;1.10;;;;;;;24.92;34.17;97940.31;4984332;28;20034;-46
2024/01/03 02:45:45;;;;;;;2.30;1.08;;;;;;;24.90;34.21;97937.34;4987036;28;20023;-45
2024/01/03 02:48:11;;;;;;;2.63;1.20;;;;;;;24.90;34.31;97940.09;4989140;28;20036;-45
2024/01/03 02:50:36;;;;;;;1.73;1.00;;;;;;;24.90;34.43;97926.28;4988827;28;20019;-46
2024/01/03 02:53:02;;;;;;;2.20;1.05;;;;;;;24.87;34.37;97926.63;4986184;28;20033;-45
2024/01/03 02:55:27;;;;;;;2.20;1.10;;;;;;;24.89;34.24;97918.53;4989993;28;20026;-45
2024/01/03 02:57:53;;;;;;;2.58;1.08;;;;;;;24.90;34.33;97912.50;4983624;28;20033;-45
2024/01/03 03:00:18;;;;;;;1.77;1.00;;;;;;;24.92;34.65;97929.28;4986450;28;20042;-47
2024/01/03 03:02:43;;;;;;;2.75;1.10;;;;;;;24.92;34.19;97934.78;4986628;28;20037;-46
2024/01/03 03:05:09;;;;;;;2.53;1.20;;;;;;;24.93;34.20;97939.03;4982286;28;20023;-45
2024/01/03 03:07:34;;;;;;;2.13;1.10;;;;;;;24.91;34.11;97938.81;4982786;28;20022;-46
2024/01/03 03:10:00;;;;;;;1.55;0.95;;;;;;;24.91;34.32;97947.09;4989092;28;20028;-46
2024/01/03 03:12:25;;;;;;;1.80;0.90;;;;;;;24.93;34.10;97947.31;4987315;28;20036;-48
2024/01/03 03:14:51;;;;;;;2.50;1.00;;;;;;;24.93;34.10;97933.50;4993270;28;20022;-46
2024/01/03 03:17:16;;;;;;;1.50;1.00;;;;;;;24.93;34.19;97943.81;4983522;28;20029;-46
2024/01/03 03:19:42;;;;;;;1.95;1.00;;;;;;;24.93;34.13;97941.78;4984854;28;20030;-45
2024/01/03 03:22:07;;;;;;;1.90;0.98;;;;;;;24.93;34.01;97944.56;4982967;28;20093;-45
2024/01/03 03:24:33;;;;;;;2.53;1.10;;;;;;;24.92;34.31;97956.88;4985732;28;20915;-45
2024/01/03 03:26:58;;;;;;;1.80;1.00;;;;;;;24.92;34.14;97948.59;4980867;28;20049;-46
2024/01/03 03:29:23;;;;;;;1.90;0.93;;;;;;;24.93;33.99;97958.34;4981835;28;20035;-47
2024/01/03 03:31:49;;;;;;;1.88;1.00;;;;;;;24.90;34.20;97956.66;4973720;28;20042;-48
2024/01/03 03:34:17;;;;;;;2.10;1.05;;;;;;;24.90;34.26;97959.41;4983282;28;20085;-45
2024/01/03 03:36:43;;;;;;;1.27;0.80;;;;;;;24.91;34.27;97960.91;4984272;28;20038;-46
2024/01/03 03:39:09;;;;;;;1.55;0.93;;;;;;;24.93;34.17;97941.03;4981652;28;20026;-46
2024/01/03 03:41:35;;;;;;;2.38;1.10;;;;;;;24.93;34.14;97947.31;4982149;28;20029;-45
2024/01/03 03:44:00;;;;;;;2.63;1.10;;;;;;;24.92;34.00;97950.59;4984724;28;20023;-48
2024/01/03 03:46:25;;;;;;;2.35;0.90;;;;;;;24.90;34.12;97931.81;4984613;28;20457;-45
2024/01/03 03:48:51;;;;;;;1.77;0.90;;;;;;;24.92;34.24;97923.75;4978518;28;20100;-46
2024/01/03 03:51:16;;;;;;;1.20;0.82;;;;;;;24.95;34.09;97933.75;4981090;28;20034;-45
2024/01/03 03:53:41;;;;;;;1.33;0.88;;;;;;;24.95;34.29;97942.03;4980839;28;20438;-45
2024/01/03 03:56:07;;;;;;;1.40;0.85;;;;;;;24.95;34.06;97944.78;4982653;28;20027;-46
2024/01/03 03:58:32;;;;;;;1.77;1.00;;;;;;;24.93;34.07;97941.78;4978976;28;20557;-47
2024/01/03 04:00:57;;;;;;;1.67;0.90;;;;;;;24.95;34.12;97958.59;4984324;28;20022;-47
2024/01/03 04:03:23;;;;;;;1.85;0.90;;;;;;;24.97;34.13;97960.81;4978706;28;20018;-45
2024/01/03 04:05:48;;;;;;;1.95;0.93;;;;;;;24.96;34.16;97954.56;4983687;28;20031;-45
2024/01/03 04:08:14;;;;;;;2.10;1.02;;;;;;;24.97;34.00;97953.28;4980034;28;20036;-46
2024/01/03 04:10:40;;;;;;;2.20;0.93;;;;;;;24.98;33.99;97948.50;4981550;28;20490;-45
2024/01/03 04:13:06;;;;;;;1.30;0.75;;;;;;;24.99;34.02;97950.72;4981211;28;20037;-46
2024/01/03 04:15:31;;;;;;;1.52;0.90;;;;;;;24.98;34.10;97949.22;4979002;28;20034;-48
2024/01/03 04:17:56;;;;;;;1.02;0.80;;;;;;;24.97;34.09;97958.06;4979990;28;20030;-46
2024/01/03 04:20:22;;;;;;;2.17;0.93;;;;;;;24.93;34.12;97957.59;4983700;28;20036;-45
2024/01/03 04:22:47;;;;;;;1.38;0.80;;;;;;;24.96;34.17;97951.06;4985800;28;20068;-46
2024/01/03 04:25:12;;;;;;;1.88;0.90;;;;;;;24.96;34.05;97960.06;4980915;28;20105;-46
2024/01/03 04:27:38;;;;;;;1.73;0.90;;;;;;;24.94;33.94;97954.34;4981688;28;20010;-46
2024/01/03 04:30:04;;;;;;;2.00;0.90;;;;;;;24.95;34.16;97944.06;4980624;28;20030;-45
2024/01/03 04:32:30;;;;;;;1.58;0.82;;;;;;;24.96;33.98;97954.56;4981058;28;20042;-46
2024/01/03 04:34:55;;;;;;;1.52;0.85;;;;;;;24.94;34.06;97951.59;4982341;28;20026;-45
2024/01/03 04:37:21;;;;;;;1.92;0.90;;;;;;;24.94;34.13;97950.81;4980926;28;20552;-47
2024/01/03 04:39:46;;;;;;;2.97;0.90;;;;;;;24.93;34.36;97952.84;4981626;28;20018;-45
2024/01/03 04:42:11;;;;;;;1.75;0.90;;;;;;;24.92;34.39;97954.09;4983433;28;20030;-46
2024/01/03 04:44:37;;;;;;;2.00;0.93;;;;;;;24.87;34.23;97959.72;4991672;28;20469;-46
2024/01/03 04:47:03;;;;;;;3.30;1.10;;;;;;;24.85;34.47;97954.75;4980841;28;20022;-46
2024/01/03 04:49:29;;;;;;;1.55;0.80;;;;;;;24.85;34.29;97963.03;4989441;28;20118;-46
2024/01/03 04:51:54;;;;;;;2.85;0.88;;;;;;;24.84;34.28;97963.56;4983860;28;20023;-46
2024/01/03 04:54:19;;;;;;;1.20;0.80;;;;;;;24.82;34.14;97961.31;4986951;28;20038;-46
2024/01/03 04:56:45;;;;;;;1.52;0.88;;;;;;;24.84;34.38;97944.97;4980249;28;20026;-46
2024/01/03 04:59:10;;;;;;;1.50;0.80;;;;;;;24.82;34.27;97953.03;4979388;28;20881;-49
2024/01/03 05:01:35;;;;;;;2.25;1.00;;;;;;;24.84;34.43;97950.50;4982035;28;20114;-45
2024/01/03 05:04:01;;;;;;;1.67;0.80;;;;;;;24.84;34.56;97950.50;4984859;28;20033;-46
2024/01/03 05:06:26;;;;;;;3.03;0.90;;;;;;;24.85;34.54;97954.00;4985077;28;20049;-46
2024/01/03 05:08:51;;;;;;;1.95;0.82;;;;;;;24.86;34.58;97942.44;4989706;28;20030;-46
2024/01/03 05:11:17;;;;;;;2.22;0.90;;;;;;;24.86;34.52;97959.00;4986585;28;20055;-45
2024/01/03 05:13:42;;;;;;;2.47;0.95;;;;;;;24.84;34.53;97956.03;4991891;28;20040;-45
2024/01/03 05:16:07;;;;;;;2.95;1.00;;;;;;;24.84;34.61;97958.03;4986506;28;20026;-46
2024/01/03 05:18:33;;;;;;;1.65;0.80;;;;;;;24.86;34.47;97956.22;4987043;28;20044;-46
2024/01/03 05:20:58;;;;;;;2.08;1.00;;;;;;;24.82;34.82;97961.31;4987498;28;20018;-46
2024/01/03 05:23:24;;;;;;;2.28;0.70;;;;;;;24.82;34.74;97961.31;4983505;28;20486;-45
2024/01/03 05:25:49;;;;;;;1.50;0.90;;;;;;;24.83;34.71;97973.84;4987372;28;20022;-46
2024/01/03 05:28:15;;;;;;;1.85;0.90;;;;;;;24.84;34.64;97964.28;4981789;28;20053;-46
2024/01/03 05:30:40;;;;;;;2.38;0.90;;;;;;;24.85;34.83;97968.53;4989787;28;20834;-45
2024/01/03 05:33:06;;;;;;;3.03;1.20;;;;;;;24.86;34.67;97967.28;4990528;28;20045;-46
2024/01/03 05:35:31;;;;;;;1.75;0.80;;;;;;;24.90;34.54;97966.94;4987798;28;20033;-46
2024/01/03 05:37:56;;;;;;;1.83;0.93;;;;;;;24.90;34.43;97969.72;4987644;28;20394;-47
2024/01/03 05:40:22;;;;;;;2.30;0.80;;;;;;;24.88;34.60;97973.00;4989900;28;20041;-45
2024/01/03 05:42:47;;;;;;;2.35;1.00;;;;;;;24.91;34.42;97971.94;4983007;28;20383;-45
2024/01/03 05:45:12;;;;;;;1.55;0.90;;;;;;;24.91;34.33;97971.94;4987339;28;20037;-47
2024/01/03 05:47:38;;;;;;;2.50;0.90;;;;;;;24.94;34.52;97970.13;4984506;28;20038;-47
2024/01/03 05:50:04;;;;;;;2.58;0.90;;;;;;;24.98;34.25;97971.31;4989758;28;20434;-48
2024/01/03 05:52:29;;;;;;;1.90;0.90;;;;;;;25.03;34.16;97966.94;4986884;28;20034;-45
2024/01/03 05:54:55;;;;;;;3.47;1.00;;;;;;;25.01;34.37;97961.97;4992724;28;20021;-46
2024/01/03 05:57:20;;;;;;;5.10;1.00;;;;;;;25.02;34.47;97968.97;4980095;28;20031;-46
2024/01/03 05:59:45;;;;;;;2.80;0.90;;;;;;;25.06;34.51;97960.38;4990143;28;20103;-46
2024/01/03 06:02:11;;;;;;;3.35;0.90;;;;;;;25.11;34.58;97978.09;4983255;28;20805;-47
2024/01/03 06:04:37;;;;;;;4.10;1.10;;;;;;;25.08;34.49;97957.06;4984907;28;20023;-45
2024/01/03 06:07:02;;;;;;;3.83;0.90;;;;;;;25.09;34.38;97961.31;4982602;28;20048;-48
2024/01/03 06:09:28;;;;;;;4.32;1.05;;;;;;;25.08;34.52;97982.66;4985680;28;20035;-46
2024/01/03 06:11:53;;;;;;;4.82;1.10;;;;;;;24.98;34.59;97976.81;4985859;28;20030;-45
2024/01/03 06:14:18;;;;;;;2.63;0.90;;;;;;;24.92;34.49;97972.69;4985226;28;20030;-46
2024/01/03 06:16:44;;;;;;;3.42;1.00;;;;;;;24.89;34.75;97968.97;4984385;28;20031;-47
2024/01/03 06:19:09;;;;;;;1.92;1.00;;;;;;;24.90;34.51;97973.22;4987179;28;20034;-49
2024/01/03 06:21:35;;;;;;;4.95;1.00;;;;;;;24.96;34.60;97962.09;4988147;28;20756;-47
2024/01/03 06:24:01;;;;;;;5.85;1.10;;;;;;;24.96;34.63;97978.66;4988163;28;20042;-47
2024/01/03 06:26:30;;;;;;;2.83;1.02;;;;;;;24.95;34.35;97977.91;4983035;28;20022;-44
2024/01/03 06:28:55;;;;;;;3.95;1.20;;;;;;;24.95;34.62;97972.41;4982990;28;20030;-42
2024/01/03 06:31:21;;;;;;;2.83;1.02;;;;;;;24.93;34.38;97966.63;4982331;28;20041;-43
2024/01/03 06:33:47;;;;;;;2.72;1.00;;;;;;;24.93;34.35;97963.13;4988375;28;20193;-43
2024/01/03 06:36:13;;;;;;;3.15;1.00;;;;;;;24.98;34.42;97956.78;4984103;28;20026;-43
2024/01/03 06:38:38;;;;;;;3.63;1.00;;;;;;;24.91;34.65;97960.91;4986829;28;20026;-45
2024/01/03 06:41:03;;;;;;;3.65;1.10;;;;;;;24.89;34.51;97962.72;4984739;28;20474;-41
2024/01/03 06:43:29;;;;;;;2.72;1.00;;;;;;;24.89;34.50;97966.22;4980765;28;20053;-45
2024/01/03 06:45:55;;;;;;;1.88;0.90;;;;;;;24.90;34.53;97964.94;4985963;28;20022;-45
2024/01/03 06:48:21;;;;;;;4.22;1.10;;;;;;;24.89;34.52;97957.94;4980835;28;20018;-43
2024/01/03 06:50:46;;;;;;;7.80;1.30;;;;;;;24.88;34.69;97956.44;4983116;28;20053;-44
2024/01/03 06:53:12;;;;;;;3.97;1.20;;;;;;;24.92;34.64;97956.13;4982958;28;20034;-44
2024/01/03 06:55:37;;;;;;;6.30;1.30;;;;;;;24.95;34.51;97964.13;4981268;28;20431;-47
2024/01/03 06:58:03;;;;;;;6.45;1.13;;;;;;;25.03;34.37;97947.63;4982610;28;20032;-46
2024/01/03 07:00:28;;;;;;;4.15;1.10;;;;;;;25.00;34.40;97945.94;4987563;28;20026;-49
2024/01/03 07:02:53;;;;;;;3.35;1.10;;;;;;;24.93;34.35;97952.84;4981281;28;20025;-46
2024/01/03 07:05:19;;;;;;;5.38;1.20;;;;;;;24.99;34.47;97945.19;4983544;28;20508;-43
2024/01/03 07:07:44;;;;;;;3.75;1.20;;;;;;;24.93;34.29;97954.84;4983243;28;20022;-42
2024/01/03 07:10:09;;;;;;;4.30;1.30;;;;;;;24.87;34.46;97962.50;4981402;28;20035;-46
2024/01/03 07:12:35;;;;;;;3.58;1.20;;;;;;;24.94;34.20;97981.19;4980252;28;20031;-46
2024/01/03 07:15:00;;;;;;;3.13;1.30;;;;;;;24.87;34.47;97979.78;4982552;28;20023;-49
2024/01/03 07:17:25;;;;;;;3.22;1.30;;;;;;;24.89;34.53;97974.50;4981770;28;20042;-47
2024/01/03 07:19:51;;;;;;;9.23;1.40;;;;;;;24.86;34.33;97997.63;4985416;28;20045;-45
2024/01/03 07:22:16;;;;;;;3.58;1.20;;;;;;;24.82;34.31;97983.41;4984637;28;20027;-51
2024/01/03 07:24:41;;;;;;;4.53;1.20;;;;;;;24.76;34.23;97982.78;4983694;28;20026;-48
2024/01/03 07:27:07;;;;;;;3.50;1.30;;;;;;;24.84;34.42;97969.81;4985560;28;20026;-45
2024/01/03 07:29:32;;;;;;;3.95;1.23;;;;;;;24.80;34.42;97969.38;4982966;28;20033;-50
2024/01/03 07:31:58;;;;;;;3.88;1.13;;;;;;;24.87;34.41;97968.75;4981286;28;20061;-46
2024/01/03 07:34:23;;;;;;;2.35;1.20;;;;;;;24.95;34.29;97963.38;4984501;28;20067;-46
2024/01/03 07:36:49;;;;;;;6.68;1.58;;;;;;;25.01;34.54;97978.53;4984319;28;20038;-44
2024/01/03 07:39:15;;;;;;;5.65;1.75;;;;;;;24.97;34.59;97975.38;4982536;28;20113;-41
2024/01/03 07:41:40;;;;;;;6.38;1.40;;;;;;;24.96;34.67;97976.63;4983778;28;20500;-45
2024/01/03 07:44:05;;;;;;;4.95;1.20;;;;;;;24.97;34.67;97963.59;4990185;28;20041;-45
2024/01/03 07:46:31;;;;;;;5.85;1.40;;;;;;;24.94;34.31;97951.59;4984544;28;20031;-46
2024/01/03 07:48:56;;;;;;;5.45;1.42;;;;;;;24.96;34.61;97968.34;4984860;28;20478;-45
2024/01/03 07:51:21;;;;;;;6.47;1.30;;;;;;;24.92;35.67;97967.16;4979513;28;20033;-46
2024/01/03 07:53:47;;;;;;;2.88;1.20;;;;;;;24.75;35.60;97972.28;4982628;28;20030;-46
2024/01/03 07:56:13;;;;;;;4.57;1.50;;;;;;;24.63;35.47;97953.16;4981924;28;20494;-46
2024/01/03 07:58:38;;;;;;;4.97;1.30;;;;;;;24.61;35.96;97971.53;4981628;28;20027;-47
2024/01/03 08:01:04;;;;;;;8.30;1.60;;;;;;;24.61;36.17;97974.28;4980278;28;20799;-47
2024/01/03 08:03:29;;;;;;;3.83;1.40;;;;;;;24.63;35.97;97994.56;4984625;28;20037;-49
2024/01/03 08:05:54;;;;;;;5.05;1.30;;;;;;;24.68;35.66;98001.97;4981395;28;20087;-47
2024/01/03 08:08:20;;;;;;;3.67;1.42;;;;;;;24.66;35.54;97999.00;4987068;28;20044;-52
2024/01/03 08:10:45;;;;;;;3.90;1.17;;;;;;;24.56;35.82;97981.41;4983794;28;20022;-47
2024/01/03 08:13:11;;;;;;;2.85;1.20;;;;;;;24.56;35.72;97986.94;4986909;28;20444;-46
2024/01/03 08:15:37;;;;;;;3.10;1.27;;;;;;;24.56;35.88;97981.41;4984163;28;20054;-45
2024/01/03 08:18:02;;;;;;;3.75;1.30;;;;;;;24.53;35.99;97981.72;4982911;28;20029;-49
2024/01/03 08:20:27;;;;;;;3.72;1.20;;;;;;;24.58;35.83;97995.38;4983111;28;20030;-49
2024/01/03 08:22:53;;;;;;;3.22;1.20;;;;;;;24.63;35.71;97993.81;4984411;28;20019;-52
2024/01/03 08:25:18;;;;;;;3.40;1.20;;;;;;;24.57;35.75;97998.69;4983202;28;20390;-54
2024/01/03 08:27:43;;;;;;;3.80;1.40;;;;;;;24.54;35.55;97988.72;4986716;28;20096;-52
2024/01/03 08:30:09;;;;;;;4.05;1.30;;;;;;;24.54;35.64;97983.22;4985399;28;20036;-55
2024/01/03 08:32:36;;;;;;;2.70;1.00;;;;;;;24.49;35.69;97986.81;4994123;28;20437;-48
2024/01/03 08:35:03;;;;;;;3.08;1.30;;;;;;;24.51;35.74;97984.25;4987430;28;20030;-46
2024/01/03 08:37:29;;;;;;;2.67;1.10;;;;;;;24.52;35.67;97980.97;4980866;28;20113;-52
2024/01/03 08:39:55;;;;;;;5.25;1.23;;;;;;;24.55;35.49;97992.97;4987732;28;20106;-52
2024/01/03 08:42:22;;;;;;;3.75;1.30;;;;;;;24.59;35.68;97996.88;4978572;28;20046;-47
2024/01/03 08:44:47;;;;;;;6.00;1.60;;;;;;;24.65;35.24;97991.25;5013031;28;20030;-42
2024/01/03 08:47:13;;;;;;;3.67;1.30;;;;;;;24.45;35.48;97984.38;4981088;28;20114;-44
2024/01/03 08:49:39;;;;;;;6.25;1.60;;;;;;;24.48;35.45;97982.56;4984709;28;20580;-46
2024/01/03 08:52:04;;;;;;;5.90;1.40;;;;;;;24.23;34.43;98004.78;4977247;28;20034;-49
2024/01/03 08:54:29;;;;;;;3.20;1.45;;;;;;;24.23;34.74;97987.47;4982352;28;20113;-49
2024/01/03 08:56:55;;;;;;;4.13;1.40;;;;;;;24.30;34.78;98003.44;4980677;28;20069;-47
2024/01/03 08:59:20;;;;;;;3.95;1.40;;;;;;;24.37;34.78;98009.09;4986341;28;20027;-42
2024/01/03 09:01:50;;;;;;;3.65;1.10;;;;;;;24.50;34.74;97997.31;4981901;28;20034;-49
2024/01/03 09:04:15;;;;;;;4.90;1.30;;;;;;;24.58;34.60;97989.16;4991138;28;20080;-46
2024/01/03 09:06:40;;;;;;;5.93;1.40;;;;;;;24.62;34.39;97986.81;4991338;28;20027;-48
2024/01/03 09:09:06;;;;;;;4.32;1.42;;;;;;;24.62;34.36;97993.06;4983858;28;20036;-46
2024/01/03 09:11:31;;;;;;;4.30;1.73;;;;;;;24.54;34.17;97997.75;4982802;28;20474;-42
2024/01/03 09:13:57;;;;;;;6.47;1.50;;;;;;;24.53;34.48;97990.00;4980538;28;20038;-41
2024/01/03 09:16:22;;;;;;;2.80;1.20;;;;;;;24.55;34.34;97990.97;4983756;28;20033;-42
2024/01/03 09:18:48;;;;;;;4.28;1.60;;;;;;;24.60;34.52;97987.34;4985312;28;20027;-45
2024/01/03 09:21:14;;;;;;;5.10;1.38;;;;;;;24.64;34.19;97978.75;4983111;28;20116;-50
2024/01/03 09:23:39;;;;;;;5.03;1.48;;;;;;;24.62;34.73;97986.81;4981150;28;20046;-52
2024/01/03 09:26:05;;;;;;;6.03;1.40;;;;;;;24.63;34.84;97993.81;4988631;28;20033;-51
2024/01/03 09:28:30;;;;;;;3.45;1.20;;;;;;;24.62;34.80;97995.09;4985480;28;20039;-49
2024/01/03 09:30:56;;;;;;;4.45;1.30;;;;;;;24.61;34.62;97988.06;4985866;28;20117;-48
2024/01/03 09:33:21;;;;;;;3.65;1.20;;;;;;;24.60;34.53;97992.84;4983348;28;20045;-47
2024/01/03 09:35:46;;;;;;;3.97;1.40;;;;;;;24.62;34.44;98006.13;4985475;28;20022;-47
2024/01/03 09:38:13;;;;;;;3.17;1.35;;;;;;;24.63;34.50;98002.09;4985131;28;20633;-47
2024/01/03 09:40:38;;;;;;;4.05;1.40;;;;;;;24.62;34.42;98020.66;4989941;28;20087;-52
2024/01/03 09:43:03;;;;;;;5.45;1.60;;;;;;;24.62;34.55;98022.66;5016471;28;20034;-51
2024/01/03 09:45:29;;;;;;;4.85;1.80;;;;;;;24.63;34.71;98040.72;4987296;28;20501;-48
2024/01/03 09:47:54;;;;;;;5.10;1.80;;;;;;;24.62;34.48;98028.94;5000593;28;20026;-48
2024/01/03 09:50:21;;;;;;;6.13;1.60;;;;;;;24.62;34.43;98028.19;4987148;28;20030;-48
2024/01/03 09:52:46;;;;;;;4.57;1.70;;;;;;;24.61;34.62;98038.47;4985764;28;20364;-47
2024/01/03 09:55:12;;;;;;;5.40;1.70;;;;;;;24.64;34.62;98042.94;5000333;28;20080;-47
2024/01/03 09:57:38;;;;;;;4.57;1.75;;;;;;;24.62;34.58;98042.72;4984669;28;20425;-47
2024/01/03 10:00:04;;;;;;;4.85;1.80;;;;;;;24.60;34.45;98047.28;4989036;28;20099;-50
2024/01/03 10:02:30;;;;;;;4.40;1.67;;;;;;;24.59;34.51;98040.28;4983581;28;20475;-47
2024/01/03 10:04:55;;;;;;;4.10;1.45;;;;;;;24.58;34.52;98038.81;4987854;28;20029;-47
2024/01/03 10:07:33;;;;;;;4.75;1.75;;;;;;;24.59;34.46;98048.53;4986081;28;20481;-48
2024/01/03 10:09:58;;;;;;;3.70;1.50;;;;;;;24.55;34.60;98056.41;4986265;28;20034;-48
2024/01/03 10:12:24;;;;;;;3.78;1.50;;;;;;;24.58;34.54;98064.34;4987894;28;20041;-48
2024/01/03 10:14:50;;;;;;;4.03;1.40;;;;;;;24.56;34.51;98069.69;4984125;28;20492;-47
2024/01/03 10:17:15;;;;;;;4.35;1.52;;;;;;;24.57;34.41;98095.25;4982887;28;20121;-51
2024/01/03 10:19:40;;;;;;;4.13;1.83;;;;;;;24.57;34.59;98098.75;4984758;28;20069;-51
2024/01/03 10:22:06;;;;;;;5.65;2.20;;;;;;;24.58;34.71;98105.00;4981853;28;20078;-47
2024/01/03 10:24:31;;;;;;;7.72;2.58;;;;;;;24.62;34.43;98099.91;4984364;28;20038;-51
2024/01/03 10:27:08;;;;;;;14.60;7.68;;;;;;;24.64;34.39;98111.16;4981504;28;20023;-47
2024/01/03 10:29:34;;;;;;;51.20;32.53;;;;;;;24.65;34.75;98098.84;4980940;28;20030;-47
2024/01/03 10:32:00;;;;;;;66.40;44.40;;;;;;;24.73;34.84;98088.69;4987997;28;20371;-50
2024/01/03 10:34:25;;;;;;;89.45;53.28;;;;;;;24.77;34.95;98083.59;4985579;28;20025;-49
2024/01/03 10:36:55;;;;;;;86.63;53.42;;;;;;;24.76;34.96;98084.88;4985521;28;20029;-50
2024/01/03 10:39:21;;;;;;;92.88;60.63;;;;;;;24.75;35.15;98096.44;4981841;28;20543;-49
2024/01/03 10:41:47;;;;;;;95.68;59.25;;;;;;;24.75;35.06;98082.66;4970944;28;20113;-47
2024/01/03 10:44:13;;;;;;;114.10;75.57;;;;;;;24.76;35.09;98089.66;4986055;28;20505;-48
2024/01/03 10:46:42;;;;;;;116.25;76.00;;;;;;;24.80;35.08;98087.31;4984056;28;20026;-49
2024/01/03 10:49:08;;;;;;;113.18;75.68;;;;;;;24.79;35.19;98092.06;4983604;28;20026;-46
2024/01/03 10:51:41;;;;;;;106.15;74.50;;;;;;;24.79;35.06;98083.78;5013767;28;20100;-48
2024/01/03 10:54:13;;;;;;;112.97;77.55;;;;;;;24.84;35.26;98091.25;5021460;28;20026;-53
2024/01/03 10:56:41;;;;;;;112.63;74.55;;;;;;;24.82;35.30;98070.97;4292452;28;10001211;-48
2024/01/03 10:59:06;;;;;;;110.43;73.88;;;;;;;24.87;34.90;98059.81;5012441;28;20031;-47
2024/01/03 11:01:34;;;;;;;106.82;72.47;;;;;;;24.89;34.85;98054.53;4976026;28;20202;-45
2024/01/03 11:04:09;;;;;;;102.38;71.85;;;;;;;24.94;35.26;98037.16;4994649;28;20031;-45
2024/01/03 11:06:38;;;;;;;100.15;70.72;;;;;;;24.93;35.37;98041.16;4979833;28;20041;-47
2024/01/03 11:09:03;;;;;;;98.05;70.05;;;;;;;25.00;35.55;98046.03;4976393;28;20963;-47
2024/01/03 11:11:32;;;;;;;99.78;69.07;;;;;;;24.99;35.60;98050.06;4977834;28;20027;-46
2024/01/03 11:13:59;;;;;;;102.68;71.97;;;;;;;24.94;35.71;98031.63;4978015;28;20022;-46
2024/01/03 11:16:51;;;;;;;98.43;70.22;;;;;;;24.93;35.77;98032.88;4979078;28;20141;-45
2024/01/03 11:19:26;;;;;;;93.65;67.35;;;;;;;24.92;35.97;98023.09;4979486;28;20070;-53
2024/01/03 11:21:51;;;;;;;89.20;64.68;;;;;;;24.96;35.70;98026.31;4977974;28;20031;-52
2024/01/03 11:24:20;;;;;;;84.80;63.83;;;;;;;24.99;35.85;98011.44;4979483;28;20553;-45